sensor_id;sensor_type;location;lat;lon;timestamp;pressure;altitude;pressure_sealevel;temperature;humidity
64698;BME280;51124;53.394;-6.294;2022-09-27T00:00:10;100085.96;;;19.69;13.29
64698;BME280;51124;53.394;-6.294;2022-09-27T00:02:43;100087.89;;;16.38;13.06
64698;BME280;51124;53.394;-6.294;2022-09-27T00:05:17;100088.41;;;16.46;12.47
64698;BME280;51124;53.394;-6.294;2022-09-27T00:07:51;100083.37;;;16.97;11.99
64698;BME280;51124;53.394;-6.294;2022-09-27T00:10:25;100082.92;;;16.28;11.72
64698;BME280;51124;53.394;-6.294;2022-09-27T00:12:58;100089.67;;;15.98;11.59
64698;BME280;51124;53.394;-6.294;2022-09-27T00:15:32;100083.22;;;16.94;10.91
64698;BME280;51124;53.394;-6.294;2022-09-27T00:18:06;100074.29;;;17.08;11.11
64698;BME280;51124;53.394;-6.294;2022-09-27T00:20:40;100068.49;;;16.66;10.87
64698;BME280;51124;53.394;-6.294;2022-09-27T00:23:13;100064.55;;;16.99;10.71
64698;BME280;51124;53.394;-6.294;2022-09-27T00:25:55;100068.09;;;16.55;10.86
64698;BME280;51124;53.394;-6.294;2022-09-27T00:28:19;100073.20;;;17.74;10.64
64698;BME280;51124;53.394;-6.294;2022-09-27T00:30:53;100069.49;;;16.73;10.62
64698;BME280;51124;53.394;-6.294;2022-09-27T00:33:27;100070.16;;;16.65;10.68
64698;BME280;51124;53.394;-6.294;2022-09-27T00:36:03;100074.90;;;17.23;10.47
64698;BME280;51124;53.394;-6.294;2022-09-27T00:38:27;100073.15;;;16.54;10.60
64698;BME280;51124;53.394;-6.294;2022-09-27T00:41:00;100062.68;;;16.05;10.71
64698;BME280;51124;53.394;-6.294;2022-09-27T00:43:44;100058.80;;;16.35;10.50
64698;BME280;51124;53.394;-6.294;2022-09-27T00:46:08;100058.20;;;16.98;10.50
64698;BME280;51124;53.394;-6.294;2022-09-27T00:48:47;100055.05;;;16.90;10.45
64698;BME280;51124;53.394;-6.294;2022-09-27T00:51:12;100052.16;;;17.32;10.25
64698;BME280;51124;53.394;-6.294;2022-09-27T00:53:50;100039.84;;;17.71;10.17
64698;BME280;51124;53.394;-6.294;2022-09-27T00:56:18;100040.82;;;17.05;10.30
64698;BME280;51124;53.394;-6.294;2022-09-27T00:58:47;100042.21;;;17.81;10.15
64698;BME280;51124;53.394;-6.294;2022-09-27T01:01:13;100048.25;;;17.71;9.88
64698;BME280;51124;53.394;-6.294;2022-09-27T01:03:51;100050.05;;;17.30;10.16
64698;BME280;51124;53.394;-6.294;2022-09-27T01:06:19;100047.07;;;16.77;10.13
64698;BME280;51124;53.394;-6.294;2022-09-27T01:08:43;100045.35;;;16.51;10.47
64698;BME280;51124;53.394;-6.294;2022-09-27T01:11:27;100038.19;;;16.91;10.32
64698;BME280;51124;53.394;-6.294;2022-09-27T01:13:54;100037.20;;;16.68;10.21
64698;BME280;51124;53.394;-6.294;2022-09-27T01:16:19;100046.36;;;17.17;10.30
64698;BME280;51124;53.394;-6.294;2022-09-27T01:18:54;100039.38;;;17.03;10.31
64698;BME280;51124;53.394;-6.294;2022-09-27T01:21:27;100030.82;;;15.56;10.64
64698;BME280;51124;53.394;-6.294;2022-09-27T01:23:58;100032.62;;;15.95;10.85
64698;BME280;51124;53.394;-6.294;2022-09-27T01:26:19;100023.32;;;18.03;10.14
64698;BME280;51124;53.394;-6.294;2022-09-27T01:28:56;100019.32;;;17.44;10.26
64698;BME280;51124;53.394;-6.294;2022-09-27T01:31:17;100010.73;;;16.81;10.23
64698;BME280;51124;53.394;-6.294;2022-09-27T01:33:47;100013.96;;;17.16;10.35
64698;BME280;51124;53.394;-6.294;2022-09-27T01:36:22;100011.51;;;18.12;10.00
64698;BME280;51124;53.394;-6.294;2022-09-27T01:38:56;100006.31;;;17.66;10.05
64698;BME280;51124;53.394;-6.294;2022-09-27T01:41:28;99998.37;;;17.42;10.15
64698;BME280;51124;53.394;-6.294;2022-09-27T01:44:00;99994.22;;;18.07;9.82
64698;BME280;51124;53.394;-6.294;2022-09-27T01:46:26;99991.53;;;16.95;10.30
64698;BME280;51124;53.394;-6.294;2022-09-27T01:48:52;99995.06;;;20.14;10.12
64698;BME280;51124;53.394;-6.294;2022-09-27T01:51:19;99994.02;;;18.58;11.03
64698;BME280;51124;53.394;-6.294;2022-09-27T01:53:47;99993.40;;;18.16;10.71
64698;BME280;51124;53.394;-6.294;2022-09-27T01:56:17;99992.79;;;19.98;11.01
64698;BME280;51124;53.394;-6.294;2022-09-27T01:58:47;99981.99;;;20.61;11.64
64698;BME280;51124;53.394;-6.294;2022-09-27T02:01:13;99970.07;;;20.19;11.83
64698;BME280;51124;53.394;-6.294;2022-09-27T02:03:42;99961.23;;;19.98;12.16
64698;BME280;51124;53.394;-6.294;2022-09-27T02:06:12;99968.96;;;19.63;12.53
64698;BME280;51124;53.394;-6.294;2022-09-27T02:08:40;99978.76;;;18.63;13.07
64698;BME280;51124;53.394;-6.294;2022-09-27T02:11:09;99964.54;;;19.95;12.52
64698;BME280;51124;53.394;-6.294;2022-09-27T02:13:38;99961.04;;;19.23;13.07
64698;BME280;51124;53.394;-6.294;2022-09-27T02:16:11;99961.96;;;19.16;12.82
64698;BME280;51124;53.394;-6.294;2022-09-27T02:18:34;99972.22;;;19.92;12.96
64698;BME280;51124;53.394;-6.294;2022-09-27T02:21:06;99974.76;;;19.20;12.99
64698;BME280;51124;53.394;-6.294;2022-09-27T02:23:38;99976.53;;;19.53;12.96
64698;BME280;51124;53.394;-6.294;2022-09-27T02:26:09;99977.82;;;19.68;12.95
64698;BME280;51124;53.394;-6.294;2022-09-27T02:28:39;99970.26;;;18.87;13.41
64698;BME280;51124;53.394;-6.294;2022-09-27T02:31:06;99941.23;;;20.15;12.87
64698;BME280;51124;53.394;-6.294;2022-09-27T02:33:45;99945.79;;;19.63;13.11
64698;BME280;51124;53.394;-6.294;2022-09-27T02:36:10;99950.48;;;18.94;13.36
64698;BME280;51124;53.394;-6.294;2022-09-27T02:38:44;99946.70;;;19.33;12.90
64698;BME280;51124;53.394;-6.294;2022-09-27T02:41:20;99955.33;;;19.40;13.14
64698;BME280;51124;53.394;-6.294;2022-09-27T02:43:47;99957.62;;;19.32;13.10
64698;BME280;51124;53.394;-6.294;2022-09-27T02:46:24;99957.40;;;18.65;13.20
64698;BME280;51124;53.394;-6.294;2022-09-27T02:48:50;99950.31;;;16.48;12.78
64698;BME280;51124;53.394;-6.294;2022-09-27T02:51:29;99945.20;;;16.47;12.22
64698;BME280;51124;53.394;-6.294;2022-09-27T02:53:59;99931.91;;;17.81;11.48
64698;BME280;51124;53.394;-6.294;2022-09-27T02:56:24;99932.49;;;17.28;11.27
64698;BME280;51124;53.394;-6.294;2022-09-27T02:59:05;99922.90;;;17.20;10.93
64698;BME280;51124;53.394;-6.294;2022-09-27T03:01:30;99928.39;;;17.19;10.86
64698;BME280;51124;53.394;-6.294;2022-09-27T03:03:58;99929.80;;;16.28;11.00
64698;BME280;51124;53.394;-6.294;2022-09-27T03:06:23;99919.17;;;16.23;10.81
64698;BME280;51124;53.394;-6.294;2022-09-27T03:08:58;99910.79;;;16.63;10.77
64698;BME280;51124;53.394;-6.294;2022-09-27T03:11:31;99910.23;;;17.65;10.26
64698;BME280;51124;53.394;-6.294;2022-09-27T03:14:05;99907.62;;;17.21;10.32
64698;BME280;51124;53.394;-6.294;2022-09-27T03:16:39;99909.19;;;16.89;10.38
64698;BME280;51124;53.394;-6.294;2022-09-27T03:19:12;99903.13;;;16.93;10.14
64698;BME280;51124;53.394;-6.294;2022-09-27T03:21:46;99891.79;;;17.07;10.25
64698;BME280;51124;53.394;-6.294;2022-09-27T03:24:20;99892.58;;;16.17;10.45
64698;BME280;51124;53.394;-6.294;2022-09-27T03:26:53;99887.04;;;16.58;10.41
64698;BME280;51124;53.394;-6.294;2022-09-27T03:29:27;99878.15;;;15.94;10.41
64698;BME280;51124;53.394;-6.294;2022-09-27T03:32:01;99879.71;;;17.26;10.14
64698;BME280;51124;53.394;-6.294;2022-09-27T03:34:34;99878.72;;;16.82;10.18
64698;BME280;51124;53.394;-6.294;2022-09-27T03:37:08;99883.45;;;16.95;10.15
64698;BME280;51124;53.394;-6.294;2022-09-27T03:39:42;99877.61;;;16.29;10.36
64698;BME280;51124;53.394;-6.294;2022-09-27T03:42:15;99876.00;;;18.24;9.86
64698;BME280;51124;53.394;-6.294;2022-09-27T03:44:49;99875.60;;;17.29;9.86
64698;BME280;51124;53.394;-6.294;2022-09-27T03:47:23;99877.06;;;16.79;10.26
64698;BME280;51124;53.394;-6.294;2022-09-27T03:49:56;99876.23;;;17.38;10.06
64698;BME280;51124;53.394;-6.294;2022-09-27T03:52:30;99873.96;;;17.38;10.05
64698;BME280;51124;53.394;-6.294;2022-09-27T03:55:04;99861.06;;;18.04;9.87
64698;BME280;51124;53.394;-6.294;2022-09-27T03:57:38;99864.34;;;16.43;10.23
64698;BME280;51124;53.394;-6.294;2022-09-27T04:00:13;99864.98;;;16.56;10.28
64698;BME280;51124;53.394;-6.294;2022-09-27T04:02:47;99851.63;;;17.85;9.86
64698;BME280;51124;53.394;-6.294;2022-09-27T04:05:21;99854.41;;;15.82;10.36
64698;BME280;51124;53.394;-6.294;2022-09-27T04:07:55;99850.39;;;16.63;10.19
64698;BME280;51124;53.394;-6.294;2022-09-27T04:10:29;99848.49;;;15.42;10.55
64698;BME280;51124;53.394;-6.294;2022-09-27T04:13:02;99850.42;;;17.58;9.93
64698;BME280;51124;53.394;-6.294;2022-09-27T04:15:36;99855.91;;;16.64;10.14
64698;BME280;51124;53.394;-6.294;2022-09-27T04:18:10;99864.64;;;17.29;10.34
64698;BME280;51124;53.394;-6.294;2022-09-27T04:20:43;99865.41;;;18.05;9.95
64698;BME280;51124;53.394;-6.294;2022-09-27T04:23:17;99862.22;;;16.92;10.16
64698;BME280;51124;53.394;-6.294;2022-09-27T04:25:51;99870.47;;;16.93;10.05
64698;BME280;51124;53.394;-6.294;2022-09-27T04:28:25;99860.02;;;16.48;10.03
64698;BME280;51124;53.394;-6.294;2022-09-27T04:30:58;99859.09;;;16.47;10.07
64698;BME280;51124;53.394;-6.294;2022-09-27T04:33:32;99849.89;;;19.41;10.30
64698;BME280;51124;53.394;-6.294;2022-09-27T04:36:06;99852.26;;;18.52;10.99
64698;BME280;51124;53.394;-6.294;2022-09-27T04:38:40;99855.42;;;18.31;10.71
64698;BME280;51124;53.394;-6.294;2022-09-27T04:41:14;99850.50;;;19.66;11.31
64698;BME280;51124;53.394;-6.294;2022-09-27T04:43:49;99849.64;;;20.25;11.76
64698;BME280;51124;53.394;-6.294;2022-09-27T04:46:23;99850.22;;;20.18;11.77
64698;BME280;51124;53.394;-6.294;2022-09-27T04:48:57;99859.15;;;19.29;12.48
64698;BME280;51124;53.394;-6.294;2022-09-27T04:51:32;99868.37;;;19.88;12.41
64698;BME280;51124;53.394;-6.294;2022-09-27T04:54:06;99867.44;;;19.09;12.78
64698;BME280;51124;53.394;-6.294;2022-09-27T04:56:40;99866.48;;;18.88;12.83
64698;BME280;51124;53.394;-6.294;2022-09-27T04:59:15;99861.74;;;19.79;12.61
64698;BME280;51124;53.394;-6.294;2022-09-27T05:01:49;99863.20;;;20.28;12.59
64698;BME280;51124;53.394;-6.294;2022-09-27T05:04:23;99863.22;;;20.05;12.62
64698;BME280;51124;53.394;-6.294;2022-09-27T05:06:57;99860.69;;;19.80;12.74
64698;BME280;51124;53.394;-6.294;2022-09-27T05:09:31;99855.39;;;19.59;12.86
64698;BME280;51124;53.394;-6.294;2022-09-27T05:12:06;99859.51;;;19.70;12.90
64698;BME280;51124;53.394;-6.294;2022-09-27T05:14:40;99864.69;;;19.85;12.86
64698;BME280;51124;53.394;-6.294;2022-09-27T05:17:14;99862.86;;;18.83;13.17
64698;BME280;51124;53.394;-6.294;2022-09-27T05:19:48;99866.64;;;18.50;13.35
64698;BME280;51124;53.394;-6.294;2022-09-27T05:22:23;99862.59;;;18.69;13.27
64698;BME280;51124;53.394;-6.294;2022-09-27T05:24:57;99862.61;;;18.60;13.22
64698;BME280;51124;53.394;-6.294;2022-09-27T05:27:31;99868.97;;;19.74;13.08
64698;BME280;51124;53.394;-6.294;2022-09-27T05:30:06;99863.16;;;20.22;12.71
64698;BME280;51124;53.394;-6.294;2022-09-27T05:32:42;99852.83;;;16.90;12.74
64698;BME280;51124;53.394;-6.294;2022-09-27T05:35:06;99850.04;;;16.41;12.30
64698;BME280;51124;53.394;-6.294;2022-09-27T05:37:40;99851.48;;;15.45;12.28
64698;BME280;51124;53.394;-6.294;2022-09-27T05:40:13;99848.10;;;17.41;11.31
64698;BME280;51124;53.394;-6.294;2022-09-27T05:42:47;99847.72;;;16.66;11.31
64698;BME280;51124;53.394;-6.294;2022-09-27T05:45:22;99843.44;;;16.91;10.96
64698;BME280;51124;53.394;-6.294;2022-09-27T05:47:52;99846.16;;;17.14;10.86
64698;BME280;51124;53.394;-6.294;2022-09-27T05:50:15;99843.37;;;16.14;10.90
64698;BME280;51124;53.394;-6.294;2022-09-27T05:52:49;99843.34;;;17.15;10.66
64698;BME280;51124;53.394;-6.294;2022-09-27T05:55:23;99842.35;;;17.12;10.53
64698;BME280;51124;53.394;-6.294;2022-09-27T05:57:58;99841.11;;;16.28;10.66
64698;BME280;51124;53.394;-6.294;2022-09-27T06:00:23;99837.08;;;17.72;10.03
64698;BME280;51124;53.394;-6.294;2022-09-27T06:02:59;99836.44;;;16.81;10.40
64698;BME280;51124;53.394;-6.294;2022-09-27T06:05:23;99836.46;;;16.48;10.45
64698;BME280;51124;53.394;-6.294;2022-09-27T06:07:58;99830.43;;;16.56;10.22
64698;BME280;51124;53.394;-6.294;2022-09-27T06:10:32;99819.50;;;16.67;10.23
64698;BME280;51124;53.394;-6.294;2022-09-27T06:13:09;99818.96;;;17.08;10.25
64698;BME280;51124;53.394;-6.294;2022-09-27T06:15:34;99822.18;;;15.14;10.61
64698;BME280;51124;53.394;-6.294;2022-09-27T06:18:03;99821.35;;;16.89;10.18
64698;BME280;51124;53.394;-6.294;2022-09-27T06:20:27;99816.96;;;18.08;9.91
64698;BME280;51124;53.394;-6.294;2022-09-27T06:23:05;99824.80;;;17.10;10.07
64698;BME280;51124;53.394;-6.294;2022-09-27T06:25:29;99821.68;;;16.04;10.45
64698;BME280;51124;53.394;-6.294;2022-09-27T06:28:03;99823.02;;;18.21;9.76
64698;BME280;51124;53.394;-6.294;2022-09-27T06:30:38;99831.22;;;17.13;10.13
64698;BME280;51124;53.394;-6.294;2022-09-27T06:33:14;99831.83;;;15.96;10.37
64698;BME280;51124;53.394;-6.294;2022-09-27T06:35:39;99818.92;;;17.90;9.87
64698;BME280;51124;53.394;-6.294;2022-09-27T06:38:14;99825.15;;;16.62;10.15
64698;BME280;51124;53.394;-6.294;2022-09-27T06:40:38;99830.75;;;16.74;10.18
64698;BME280;51124;53.394;-6.294;2022-09-27T06:43:14;99828.48;;;16.94;10.01
64698;BME280;51124;53.394;-6.294;2022-09-27T06:45:38;99824.67;;;18.88;9.55
64698;BME280;51124;53.394;-6.294;2022-09-27T06:48:13;99819.54;;;18.43;9.54
64698;BME280;51124;53.394;-6.294;2022-09-27T06:50:39;99822.19;;;17.25;9.97
64698;BME280;51124;53.394;-6.294;2022-09-27T06:53:04;99830.26;;;18.02;10.05
64698;BME280;51124;53.394;-6.294;2022-09-27T06:55:28;99822.07;;;18.24;10.04
64698;BME280;51124;53.394;-6.294;2022-09-27T06:58:02;99816.61;;;17.52;10.61
64698;BME280;51124;53.394;-6.294;2022-09-27T07:00:36;99824.00;;;17.60;10.69
64698;BME280;51124;53.394;-6.294;2022-09-27T07:03:10;99817.12;;;16.51;10.87
64698;BME280;51124;53.394;-6.294;2022-09-27T07:05:53;99819.20;;;17.20;10.61
64698;BME280;51124;53.394;-6.294;2022-09-27T07:08:17;99814.19;;;16.65;10.82
64698;BME280;51124;53.394;-6.294;2022-09-27T07:10:51;99807.28;;;16.82;10.52
64698;BME280;51124;53.394;-6.294;2022-09-27T07:13:24;99804.91;;;17.46;10.19
64698;BME280;51124;53.394;-6.294;2022-09-27T07:15:58;99814.39;;;18.25;10.42
64698;BME280;51124;53.394;-6.294;2022-09-27T07:18:32;99811.03;;;17.54;10.17
64698;BME280;51124;53.394;-6.294;2022-09-27T07:21:06;99803.19;;;20.98;10.27
64698;BME280;51124;53.394;-6.294;2022-09-27T07:23:40;99800.60;;;20.63;10.40
64698;BME280;51124;53.394;-6.294;2022-09-27T07:26:14;99807.81;;;18.59;11.48
64698;BME280;51124;53.394;-6.294;2022-09-27T07:28:48;99812.59;;;20.91;11.58
64698;BME280;51124;53.394;-6.294;2022-09-27T07:31:22;99818.10;;;21.19;12.14
64698;BME280;51124;53.394;-6.294;2022-09-27T07:33:56;99816.73;;;20.41;12.56
64698;BME280;51124;53.394;-6.294;2022-09-27T07:36:31;99822.30;;;19.09;13.23
64698;BME280;51124;53.394;-6.294;2022-09-27T07:39:05;99823.46;;;19.62;13.11
64698;BME280;51124;53.394;-6.294;2022-09-27T07:41:42;99812.14;;;20.28;13.32
64698;BME280;51124;53.394;-6.294;2022-09-27T07:44:06;99811.81;;;21.77;12.28
64698;BME280;51124;53.394;-6.294;2022-09-27T07:46:40;99800.33;;;19.67;13.18
64698;BME280;51124;53.394;-6.294;2022-09-27T07:49:14;99812.74;;;20.45;12.73
64698;BME280;51124;53.394;-6.294;2022-09-27T07:51:48;99815.47;;;19.65;13.08
64698;BME280;51124;53.394;-6.294;2022-09-27T07:54:22;99804.18;;;19.94;12.97
64698;BME280;51124;53.394;-6.294;2022-09-27T07:56:56;99807.16;;;19.83;13.14
64698;BME280;51124;53.394;-6.294;2022-09-27T07:59:30;99800.37;;;19.72;13.05
64698;BME280;51124;53.394;-6.294;2022-09-27T08:02:05;99798.44;;;19.24;13.10
64698;BME280;51124;53.394;-6.294;2022-09-27T08:04:39;99804.32;;;19.82;13.03
64698;BME280;51124;53.394;-6.294;2022-09-27T08:07:14;99805.89;;;20.91;13.06
64698;BME280;51124;53.394;-6.294;2022-09-27T08:09:48;99809.11;;;20.64;13.10
64698;BME280;51124;53.394;-6.294;2022-09-27T08:12:22;99808.87;;;20.17;13.38
64698;BME280;51124;53.394;-6.294;2022-09-27T08:14:57;99805.60;;;19.95;13.49
64698;BME280;51124;53.394;-6.294;2022-09-27T08:17:31;99805.59;;;19.72;13.61
64698;BME280;51124;53.394;-6.294;2022-09-27T08:20:06;99812.78;;;18.79;13.35
64698;BME280;51124;53.394;-6.294;2022-09-27T08:22:40;99805.69;;;18.01;12.61
64698;BME280;51124;53.394;-6.294;2022-09-27T08:25:14;99802.66;;;18.11;11.87
64698;BME280;51124;53.394;-6.294;2022-09-27T08:27:54;99792.75;;;17.82;11.55
64698;BME280;51124;53.394;-6.294;2022-09-27T08:30:17;99795.26;;;17.44;11.48
64698;BME280;51124;53.394;-6.294;2022-09-27T08:32:54;99797.91;;;17.75;11.23
64698;BME280;51124;53.394;-6.294;2022-09-27T08:35:18;99791.72;;;17.83;10.93
64698;BME280;51124;53.394;-6.294;2022-09-27T08:37:53;99785.45;;;18.93;10.70
64698;BME280;51124;53.394;-6.294;2022-09-27T08:40:31;99785.28;;;20.14;10.11
64698;BME280;51124;53.394;-6.294;2022-09-27T08:43:05;99777.35;;;19.96;9.95
64698;BME280;51124;53.394;-6.294;2022-09-27T08:45:34;99765.23;;;19.67;9.99
64698;BME280;51124;53.394;-6.294;2022-09-27T08:48:01;99772.50;;;18.78;10.35
64698;BME280;51124;53.394;-6.294;2022-09-27T08:50:28;99774.78;;;18.41;10.52
64698;BME280;51124;53.394;-6.294;2022-09-27T08:52:56;99777.82;;;17.51;10.67
64698;BME280;51124;53.394;-6.294;2022-09-27T08:55:25;99772.60;;;17.40;10.67
64698;BME280;51124;53.394;-6.294;2022-09-27T08:57:53;99771.71;;;18.14;10.44
64698;BME280;51124;53.394;-6.294;2022-09-27T09:00:18;99773.95;;;19.24;9.95
64698;BME280;51124;53.394;-6.294;2022-09-27T09:02:52;99775.77;;;18.88;9.85
64698;BME280;51124;53.394;-6.294;2022-09-27T09:05:29;99780.40;;;21.60;8.67
64698;BME280;51124;53.394;-6.294;2022-09-27T09:08:05;99777.17;;;19.54;9.59
64698;BME280;51124;53.394;-6.294;2022-09-27T09:10:32;99776.50;;;19.89;9.46
64698;BME280;51124;53.394;-6.294;2022-09-27T09:12:55;99770.04;;;19.07;9.65
64698;BME280;51124;53.394;-6.294;2022-09-27T09:15:31;99777.86;;;20.45;9.38
64698;BME280;51124;53.394;-6.294;2022-09-27T09:18:13;99783.00;;;18.76;10.02
64698;BME280;51124;53.394;-6.294;2022-09-27T09:20:36;99784.46;;;19.78;9.32
64698;BME280;51124;53.394;-6.294;2022-09-27T09:23:06;99780.60;;;19.01;9.47
64698;BME280;51124;53.394;-6.294;2022-09-27T09:25:28;99781.48;;;19.16;9.61
64698;BME280;51124;53.394;-6.294;2022-09-27T09:28:03;99777.27;;;19.19;9.57
64698;BME280;51124;53.394;-6.294;2022-09-27T09:30:22;99772.63;;;20.76;9.34
64698;BME280;51124;53.394;-6.294;2022-09-27T09:32:58;99776.07;;;20.45;9.46
64698;BME280;51124;53.394;-6.294;2022-09-27T09:35:14;99771.23;;;20.44;9.08
64698;BME280;51124;53.394;-6.294;2022-09-27T09:37:45;99775.42;;;20.70;9.17
64698;BME280;51124;53.394;-6.294;2022-09-27T09:40:18;99773.14;;;20.62;9.24
64698;BME280;51124;53.394;-6.294;2022-09-27T09:42:48;99775.14;;;20.20;9.58
64698;BME280;51124;53.394;-6.294;2022-09-27T09:45:18;99771.43;;;19.49;9.62
64698;BME280;51124;53.394;-6.294;2022-09-27T09:47:46;99769.01;;;19.62;9.43
64698;BME280;51124;53.394;-6.294;2022-09-27T09:50:16;99755.39;;;20.02;9.46
64698;BME280;51124;53.394;-6.294;2022-09-27T09:52:44;99750.02;;;21.24;8.90
64698;BME280;51124;53.394;-6.294;2022-09-27T09:55:16;99744.18;;;21.35;9.01
64698;BME280;51124;53.394;-6.294;2022-09-27T09:57:48;99747.11;;;19.19;9.68
64698;BME280;51124;53.394;-6.294;2022-09-27T10:00:17;99743.57;;;19.49;9.39
64698;BME280;51124;53.394;-6.294;2022-09-27T10:02:42;99739.84;;;20.52;9.07
64698;BME280;51124;53.394;-6.294;2022-09-27T10:05:11;99750.01;;;20.44;8.99
64698;BME280;51124;53.394;-6.294;2022-09-27T10:07:37;99746.88;;;20.52;9.36
64698;BME280;51124;53.394;-6.294;2022-09-27T10:10:04;99739.42;;;23.08;9.24
64698;BME280;51124;53.394;-6.294;2022-09-27T10:12:28;99729.92;;;23.26;9.62
64698;BME280;51124;53.394;-6.294;2022-09-27T10:15:04;99733.38;;;21.28;9.83
64698;BME280;51124;53.394;-6.294;2022-09-27T10:17:34;99738.90;;;20.12;10.04
64698;BME280;51124;53.394;-6.294;2022-09-27T10:20:01;99734.35;;;24.37;10.18
64698;BME280;51124;53.394;-6.294;2022-09-27T10:22:28;99743.83;;;22.91;11.03
64698;BME280;51124;53.394;-6.294;2022-09-27T10:24:56;99744.47;;;23.07;11.34
64698;BME280;51124;53.394;-6.294;2022-09-27T10:27:21;99735.48;;;23.93;10.99
64698;BME280;51124;53.394;-6.294;2022-09-27T10:29:56;99732.70;;;23.35;11.35
64698;BME280;51124;53.394;-6.294;2022-09-27T10:32:24;99727.65;;;23.23;11.45
64698;BME280;51124;53.394;-6.294;2022-09-27T10:34:50;99730.67;;;22.50;11.88
64698;BME280;51124;53.394;-6.294;2022-09-27T10:37:24;99737.02;;;22.63;11.86
64698;BME280;51124;53.394;-6.294;2022-09-27T10:39:58;99732.50;;;22.42;12.02
64698;BME280;51124;53.394;-6.294;2022-09-27T10:42:34;99731.64;;;23.31;11.72
64698;BME280;51124;53.394;-6.294;2022-09-27T10:45:21;99736.45;;;22.55;11.84
64698;BME280;51124;53.394;-6.294;2022-09-27T10:47:27;99725.90;;;22.57;12.01
64698;BME280;51124;53.394;-6.294;2022-09-27T10:50:03;99723.69;;;22.24;12.15
64698;BME280;51124;53.394;-6.294;2022-09-27T10:52:28;99721.65;;;22.36;12.26
64698;BME280;51124;53.394;-6.294;2022-09-27T10:55:15;99713.50;;;21.88;12.22
64698;BME280;51124;53.394;-6.294;2022-09-27T10:57:32;99712.66;;;22.32;12.15
64698;BME280;51124;53.394;-6.294;2022-09-27T11:00:20;99712.76;;;23.46;11.99
64698;BME280;51124;53.394;-6.294;2022-09-27T11:02:36;99705.24;;;21.44;12.57
64698;BME280;51124;53.394;-6.294;2022-09-27T11:05:05;99706.73;;;22.39;12.47
64698;BME280;51124;53.394;-6.294;2022-09-27T11:07:29;99702.63;;;22.45;12.37
64698;BME280;51124;53.394;-6.294;2022-09-27T11:10:21;99698.61;;;19.40;12.32
64698;BME280;51124;53.394;-6.294;2022-09-27T11:12:35;99693.70;;;19.49;12.02
64698;BME280;51124;53.394;-6.294;2022-09-27T11:15:16;99690.75;;;18.69;11.52
64698;BME280;51124;53.394;-6.294;2022-09-27T11:17:48;99679.29;;;20.03;11.00
64698;BME280;51124;53.394;-6.294;2022-09-27T11:20:14;99659.98;;;20.55;10.64
64698;BME280;51124;53.394;-6.294;2022-09-27T11:22:55;99660.53;;;20.35;10.37
64698;BME280;51124;53.394;-6.294;2022-09-27T11:25:18;99669.89;;;20.10;10.42
64698;BME280;51124;53.394;-6.294;2022-09-27T11:27:53;99670.91;;;18.82;10.34
64698;BME280;51124;53.394;-6.294;2022-09-27T11:30:12;99659.21;;;19.50;10.13
64698;BME280;51124;53.394;-6.294;2022-09-27T11:32:48;99669.43;;;18.63;10.33
64698;BME280;51124;53.394;-6.294;2022-09-27T11:35:21;99664.02;;;19.65;9.97
64698;BME280;51124;53.394;-6.294;2022-09-27T11:37:44;99661.36;;;19.52;9.98
64698;BME280;51124;53.394;-6.294;2022-09-27T11:40:19;99661.59;;;21.21;9.51
64698;BME280;51124;53.394;-6.294;2022-09-27T11:42:57;99663.01;;;19.97;9.77
64698;BME280;51124;53.394;-6.294;2022-09-27T11:45:23;99665.67;;;19.70;9.75
64698;BME280;51124;53.394;-6.294;2022-09-27T11:47:49;99668.99;;;21.07;9.37
64698;BME280;51124;53.394;-6.294;2022-09-27T11:50:42;99677.21;;;20.94;9.33
64698;BME280;51124;53.394;-6.294;2022-09-27T11:52:50;99668.77;;;20.71;9.51
64698;BME280;51124;53.394;-6.294;2022-09-27T11:55:15;99664.72;;;19.28;9.81
64698;BME280;51124;53.394;-6.294;2022-09-27T11:57:35;99662.70;;;20.86;9.30
64698;BME280;51124;53.394;-6.294;2022-09-27T12:00:08;99663.87;;;20.36;9.50
64698;BME280;51124;53.394;-6.294;2022-09-27T12:02:52;99658.65;;;21.12;9.20
64698;BME280;51124;53.394;-6.294;2022-09-27T12:05:21;99658.33;;;20.59;9.19
64698;BME280;51124;53.394;-6.294;2022-09-27T12:07:43;99653.78;;;21.40;9.06
64698;BME280;51124;53.394;-6.294;2022-09-27T12:10:12;99651.52;;;21.86;8.17
64698;BME280;51124;53.394;-6.294;2022-09-27T12:12:39;99653.56;;;20.84;8.35
64698;BME280;51124;53.394;-6.294;2022-09-27T12:15:11;99655.62;;;21.25;8.28
64698;BME280;51124;53.394;-6.294;2022-09-27T12:17:40;99660.93;;;20.87;8.37
64698;BME280;51124;53.394;-6.294;2022-09-27T12:20:09;99662.55;;;21.88;8.23
64698;BME280;51124;53.394;-6.294;2022-09-27T12:22:42;99657.62;;;21.17;8.42
64698;BME280;51124;53.394;-6.294;2022-09-27T12:25:13;99656.71;;;21.88;8.40
64698;BME280;51124;53.394;-6.294;2022-09-27T12:27:42;99657.66;;;21.77;8.39
64698;BME280;51124;53.394;-6.294;2022-09-27T12:30:11;99657.18;;;20.77;8.75
64698;BME280;51124;53.394;-6.294;2022-09-27T12:32:41;99659.93;;;21.55;8.69
64698;BME280;51124;53.394;-6.294;2022-09-27T12:35:15;99653.71;;;21.15;8.68
64698;BME280;51124;53.394;-6.294;2022-09-27T12:37:44;99659.26;;;20.65;8.75
64698;BME280;51124;53.394;-6.294;2022-09-27T12:40:16;99652.28;;;21.72;8.47
64698;BME280;51124;53.394;-6.294;2022-09-27T12:42:43;99648.24;;;21.38;8.52
64698;BME280;51124;53.394;-6.294;2022-09-27T12:45:11;99648.37;;;20.88;8.50
64698;BME280;51124;53.394;-6.294;2022-09-27T12:47:45;99643.51;;;20.34;8.66
64698;BME280;51124;53.394;-6.294;2022-09-27T12:50:08;99636.79;;;21.50;8.62
64698;BME280;51124;53.394;-6.294;2022-09-27T12:52:38;99639.33;;;21.08;8.71
64698;BME280;51124;53.394;-6.294;2022-09-27T12:55:21;99636.83;;;21.45;8.55
64698;BME280;51124;53.394;-6.294;2022-09-27T12:57:38;99633.92;;;21.20;8.54
64698;BME280;51124;53.394;-6.294;2022-09-27T13:00:04;99630.37;;;24.16;8.99
64698;BME280;51124;53.394;-6.294;2022-09-27T13:03:48;99625.11;;;22.78;9.38
64698;BME280;51124;53.394;-6.294;2022-09-27T13:05:12;99627.80;;;21.95;9.38
64698;BME280;51124;53.394;-6.294;2022-09-27T13:07:33;99630.66;;;24.26;9.52
64698;BME280;51124;53.394;-6.294;2022-09-27T13:09:59;99632.12;;;23.77;10.13